createdAt,value
2017-08-01T00:00:04.233Z,64.2
2017-08-01T00:01:14.638Z,64.33
2017-08-01T00:02:24.997Z,64.33
2017-08-01T00:03:35.056Z,64.2
2017-08-01T00:04:45.418Z,64.11
2017-08-01T00:05:55.147Z,64.2
2017-08-01T00:07:05.544Z,64.11
2017-08-01T00:08:15.594Z,64.2
2017-08-01T00:09:25.948Z,64.11
2017-08-01T00:10:35.997Z,64.2
2017-08-01T00:11:46.056Z,64.3
2017-08-01T00:12:56.141Z,64.11
2017-08-01T00:14:06.486Z,64.2
2017-08-01T00:15:16.846Z,64.2
2017-08-01T00:16:26.882Z,64.2
2017-08-01T00:17:36.628Z,64.2
2017-08-01T00:18:47.026Z,64.11
2017-08-01T00:19:57.382Z,64.3
2017-08-01T00:21:07.737Z,64.2
2017-08-01T00:22:18.104Z,64.07
2017-08-01T00:23:28.146Z,64.26
2017-08-01T00:24:38.192Z,64.17
2017-08-01T00:25:48.245Z,64.17
2017-08-01T00:26:58.585Z,64.17
2017-08-01T00:28:08.640Z,64.26
2017-08-01T00:29:18.678Z,64.07
2017-08-01T00:30:28.761Z,64.07
2017-08-01T00:31:39.133Z,63.98
2017-08-01T00:32:49.180Z,64.07
2017-08-01T00:33:59.518Z,64.07
2017-08-01T00:35:09.874Z,64.17
2017-08-01T00:36:20.291Z,64.07
2017-08-01T00:37:30.626Z,64.26
2017-08-01T00:38:40.971Z,64.07
2017-08-01T00:39:51.006Z,64.11
2017-08-01T00:41:01.048Z,64.07
2017-08-01T00:42:11.466Z,64.07
2017-08-01T00:43:21.812Z,64.11
2017-08-01T00:44:31.869Z,64.11
2017-08-01T00:45:42.232Z,64.26
2017-08-01T00:46:52.264Z,63.98
2017-08-01T00:48:02.667Z,64.17
2017-08-01T00:49:13.031Z,64.17
2017-08-01T00:50:23.391Z,64.07
2017-08-01T00:51:33.114Z,64.2
2017-08-01T00:52:43.154Z,64.07
2017-08-01T00:53:53.564Z,64.2
2017-08-01T00:55:03.610Z,64.2
2017-08-01T00:56:13.030Z,64.17
2017-08-01T00:57:23.086Z,64.07
2017-08-01T00:58:33.128Z,64.07
2017-08-01T00:59:43.165Z,64.26
2017-08-01T01:00:53.508Z,63.59
2017-08-01T01:02:03.552Z,64.17
2017-08-01T01:03:13.898Z,63.98
2017-08-01T01:04:24.303Z,63.68
2017-08-01T01:05:34.730Z,64.17
2017-08-01T01:06:45.107Z,63.98
2017-08-01T01:07:55.151Z,64.17
2017-08-01T01:09:05.181Z,63.68
2017-08-01T01:10:15.530Z,64.17
2017-08-01T01:11:25.880Z,63.98
2017-08-01T01:12:35.914Z,64.07
2017-08-01T01:13:46.283Z,63.68
2017-08-01T01:14:56.014Z,63.98
2017-08-01T01:16:06.382Z,63.68
2017-08-01T01:17:16.790Z,63.68
2017-08-01T01:18:27.143Z,64.07
2017-08-01T01:19:37.490Z,63.68
2017-08-01T01:20:47.841Z,64.07
2017-08-01T01:21:57.879Z,63.98
2017-08-01T01:23:08.007Z,64.07
2017-08-01T01:24:18.348Z,64.07
2017-08-01T01:25:28.692Z,64.17
2017-08-01T01:26:39.054Z,64.17
2017-08-01T01:27:49.389Z,64.17
2017-08-01T01:28:59.784Z,64.07
2017-08-01T01:30:10.127Z,64.17
2017-08-01T01:31:20.483Z,64.07
2017-08-01T01:32:30.850Z,64.17
2017-08-01T01:33:41.205Z,64.07
2017-08-01T01:34:51.612Z,63.98
2017-08-01T01:36:01.979Z,64.07
2017-08-01T01:37:12.009Z,64.07
2017-08-01T01:38:22.354Z,64.17
2017-08-01T01:39:32.701Z,63.98
2017-08-01T01:40:43.106Z,64.17
2017-08-01T01:41:53.154Z,64.14
2017-08-01T01:43:03.191Z,64.07
2017-08-01T01:44:13.527Z,63.95
2017-08-01T01:45:23.885Z,64.23
2017-08-01T01:46:34.290Z,64.14
2017-08-01T01:47:44.344Z,64.17
2017-08-01T01:48:54.695Z,64.14
2017-08-01T01:50:05.049Z,63.65
2017-08-01T01:51:15.494Z,63.65
2017-08-01T01:52:25.886Z,63.85
2017-08-01T01:53:36.242Z,64.14
2017-08-01T01:54:46.276Z,63.85
2017-08-01T01:55:56.638Z,64.23
2017-08-01T01:57:06.988Z,63.95
2017-08-01T01:58:17.405Z,64.04
2017-08-01T01:59:27.138Z,63.65
2017-08-01T02:00:37.183Z,64.04
2017-08-01T02:01:47.537Z,64.04
2017-08-01T02:02:57.895Z,64.04
2017-08-01T02:04:07.981Z,63.85
2017-08-01T02:05:18.031Z,64.14
2017-08-01T02:06:27.759Z,64.14
2017-08-01T02:07:37.813Z,63.95
2017-08-01T02:08:48.167Z,64.14
2017-08-01T02:09:58.202Z,64.14
2017-08-01T02:11:08.563Z,63.95
2017-08-01T02:12:18.918Z,64.14
2017-08-01T02:13:29.270Z,64.14
2017-08-01T02:14:39.305Z,64.23
2017-08-01T02:15:49.696Z,64.04
2017-08-01T02:17:00.040Z,64.14
2017-08-01T02:18:10.404Z,64.04
2017-08-01T02:19:20.762Z,64.04
2017-08-01T02:20:31.118Z,63.85
2017-08-01T02:21:41.457Z,64.04
2017-08-01T02:22:51.499Z,63.95
2017-08-01T02:24:01.234Z,63.85
2017-08-01T02:25:11.275Z,63.95
2017-08-01T02:26:21.296Z,64.11
2017-08-01T02:27:31.376Z,64.11
2017-08-01T02:28:41.733Z,64.23
2017-08-01T02:29:52.132Z,63.91
2017-08-01T02:31:02.493Z,64.04
2017-08-01T02:32:12.520Z,64.2
2017-08-01T02:33:22.614Z,63.82
2017-08-01T02:34:32.633Z,64.2
2017-08-01T02:35:42.989Z,63.82
2017-08-01T02:36:53.356Z,63.82
2017-08-01T02:38:03.729Z,63.72
2017-08-01T02:39:14.133Z,64.01
2017-08-01T02:40:24.474Z,64.2
2017-08-01T02:41:34.531Z,64.01
2017-08-01T02:42:44.889Z,63.91
2017-08-01T02:43:54.929Z,63.62
2017-08-01T02:45:04.711Z,64.11
2017-08-01T02:46:15.075Z,64.11
2017-08-01T02:47:25.433Z,64.01
2017-08-01T02:48:35.482Z,63.62
2017-08-01T02:49:45.829Z,63.62
2017-08-01T02:50:56.235Z,63.59
2017-08-01T02:52:06.593Z,64.17
2017-08-01T02:53:16.953Z,64.01
2017-08-01T02:54:27.303Z,63.98
2017-08-01T02:55:37.654Z,63.59
2017-08-01T02:56:48.082Z,63.98
2017-08-01T02:57:58.106Z,64.07
2017-08-01T02:59:08.446Z,64.01
2017-08-01T03:00:18.794Z,63.98
2017-08-01T03:01:29.150Z,63.98
2017-08-01T03:33:09.833Z,62.18
2017-08-01T03:34:19.550Z,62.25
2017-08-01T03:35:29.877Z,62.44
2017-08-01T03:36:40.220Z,63.53
2017-08-01T03:37:50.563Z,63.7
2017-08-01T03:39:00.638Z,63.82
2017-08-01T03:40:10.979Z,64.21
2017-08-01T03:41:21.319Z,64.4
2017-08-01T03:42:31.669Z,64.63
2017-08-01T03:43:41.699Z,64.24
2017-08-01T03:44:52.093Z,64.34
2017-08-01T03:46:02.131Z,64.82
2017-08-01T03:47:12.155Z,64.47
2017-08-01T03:48:22.513Z,64.47
2017-08-01T03:49:32.541Z,64.4
2017-08-01T03:50:42.626Z,64.11
2017-08-01T03:51:52.969Z,64.14
2017-08-01T03:53:03.318Z,64.43
2017-08-01T03:54:13.656Z,64.04
2017-08-01T03:55:24.001Z,63.76
2017-08-01T03:56:34.078Z,63.59
2017-08-01T03:57:44.431Z,63.59
2017-08-01T03:58:54.776Z,63.89
2017-08-01T04:00:05.132Z,63.92
2017-08-01T04:01:15.487Z,63.92
2017-08-01T04:02:25.838Z,63.92
2017-08-01T04:03:36.196Z,63.72
2017-08-01T04:04:46.224Z,63.92
2017-08-01T04:05:56.598Z,63.95
2017-08-01T04:07:06.945Z,63.56
2017-08-01T04:08:17.285Z,63.95
2017-08-01T04:09:27.333Z,63.75
2017-08-01T04:10:37.675Z,63.85
2017-08-01T04:11:48.029Z,63.78
2017-08-01T04:12:58.378Z,63.01
2017-08-01T04:14:08.458Z,63.01
2017-08-01T04:15:18.495Z,63.2
2017-08-01T04:16:28.852Z,63.2
2017-08-01T04:17:39.205Z,63.4
2017-08-01T04:18:49.553Z,63.4
2017-08-01T04:19:59.601Z,63.3
2017-08-01T04:21:09.960Z,63.23
2017-08-01T04:22:19.994Z,63.23
2017-08-01T04:23:30.040Z,63.62
2017-08-01T04:24:40.374Z,63.62
2017-08-01T04:25:50.752Z,63.26
2017-08-01T04:27:01.089Z,62.75
2017-08-01T04:28:11.477Z,61.42
2017-08-01T04:29:21.553Z,60.54
2017-08-01T04:30:31.597Z,59.56
2017-08-01T04:31:41.677Z,58.54
2017-08-01T04:32:51.713Z,58.38
2017-08-01T04:34:01.454Z,58.63
2017-08-01T04:35:11.814Z,58.24
2017-08-01T04:36:22.165Z,59.74
2017-08-01T04:37:32.515Z,61.27
2017-08-01T04:38:42.857Z,62.47
2017-08-01T04:39:53.210Z,63.29
2017-08-01T04:41:03.558Z,63.09
2017-08-01T04:42:13.901Z,62.9
2017-08-01T04:43:23.954Z,62.22
2017-08-01T04:44:34.316Z,62.8
2017-08-01T04:45:44.669Z,63.09
2017-08-01T04:46:55.047Z,63.06
2017-08-01T04:48:05.393Z,62.7
2017-08-01T04:49:15.754Z,61.96
2017-08-01T04:50:26.115Z,62.83
2017-08-01T04:51:36.468Z,61.86
2017-08-01T04:52:46.803Z,61.08
2017-08-01T04:53:57.160Z,60
2017-08-01T04:55:07.512Z,58.2
2017-08-01T04:56:17.870Z,58.09
2017-08-01T04:57:27.913Z,57.56
2017-08-01T04:58:38.266Z,57.03
2017-08-01T04:59:48.616Z,56.88
2017-08-01T05:00:58.988Z,57.11
2017-08-01T05:02:09.022Z,56.84
2017-08-01T05:03:19.394Z,56.97
2017-08-01T05:04:29.747Z,56.9
2017-08-01T05:05:40.113Z,57.03
2017-08-01T05:06:50.519Z,57.03
2017-08-01T05:08:00.560Z,56.95
2017-08-01T05:09:10.911Z,56.76
2017-08-01T05:10:21.265Z,56.98
2017-08-01T05:11:30.991Z,57.37
2017-08-01T05:12:41.400Z,57.6
2017-08-01T05:13:51.774Z,57.31
2017-08-01T05:15:02.168Z,57.79
2017-08-01T05:16:12.531Z,57.33
2017-08-01T05:17:22.883Z,57.43
2017-08-01T05:18:32.612Z,57.14
2017-08-01T05:19:42.967Z,57.82
2017-08-01T05:20:53.312Z,57.36
2017-08-01T05:22:03.665Z,57.75
2017-08-01T05:23:14.035Z,57.95
2017-08-01T05:24:24.446Z,58.25
2017-08-01T05:25:34.799Z,57.86
2017-08-01T05:26:44.835Z,58.05
2017-08-01T05:27:55.192Z,58.08
2017-08-01T05:29:05.543Z,58.08
2017-08-01T05:30:15.911Z,58.08
2017-08-01T05:31:26.267Z,58.08
2017-08-01T05:32:36.643Z,57.98
2017-08-01T05:33:47.001Z,58.08
2017-08-01T05:34:57.353Z,58.08
2017-08-01T05:36:07.424Z,57.78
2017-08-01T05:37:17.777Z,57.78
2017-08-01T05:38:27.513Z,57.68
2017-08-01T05:39:37.875Z,57.88
2017-08-01T05:40:48.237Z,58.08
2017-08-01T05:41:58.669Z,58.28
2017-08-01T05:43:09.015Z,58.37
2017-08-01T05:44:19.058Z,58.08
2017-08-01T05:45:29.097Z,58.77
2017-08-01T05:46:39.454Z,58.97
2017-08-01T05:47:49.867Z,58.67
2017-08-01T05:49:00.224Z,58.47
2017-08-01T05:50:10.295Z,58.47
2017-08-01T05:51:20.652Z,58.67
2017-08-01T05:52:30.993Z,58.57
2017-08-01T05:53:40.741Z,58.77
2017-08-01T05:54:51.098Z,59.03
2017-08-01T05:56:01.134Z,58.94
2017-08-01T05:57:11.486Z,59.33
2017-08-01T05:58:21.533Z,59.06
2017-08-01T05:59:31.316Z,58.87
2017-08-01T06:00:41.353Z,58.37
2017-08-01T06:01:51.692Z,58.77
2017-08-01T06:03:01.417Z,59
2017-08-01T06:04:11.458Z,58.7
2017-08-01T06:05:21.809Z,58.8
2017-08-01T06:06:32.171Z,58.89
2017-08-01T06:07:42.209Z,59.09
2017-08-01T06:08:52.259Z,59.19
2017-08-01T06:10:02.005Z,60.44
2017-08-01T06:11:12.391Z,61.74
2017-08-01T06:12:22.114Z,61.9
2017-08-01T06:13:32.159Z,62.53
2017-08-01T06:14:42.512Z,62.7
2017-08-01T06:15:52.236Z,63.35
2017-08-01T06:17:02.642Z,62.96
2017-08-01T06:18:13.010Z,62.73
2017-08-01T06:19:23.380Z,62.84
2017-08-01T06:20:33.738Z,62.41
2017-08-01T06:21:44.087Z,62.31
2017-08-01T06:22:54.129Z,62.12
2017-08-01T06:24:04.468Z,61.72
2017-08-01T06:25:14.824Z,61.72
2017-08-01T06:26:24.870Z,62.02
2017-08-01T06:27:34.908Z,61.52
2017-08-01T06:28:45.294Z,61.52
2017-08-01T06:29:55.340Z,61.33
2017-08-01T06:31:05.059Z,61.33
2017-08-01T06:32:15.456Z,61.82
2017-08-01T06:33:25.506Z,61.43
2017-08-01T06:34:35.919Z,61.43
2017-08-01T06:35:46.266Z,61.4
2017-08-01T06:36:56.642Z,61.43
2017-08-01T06:38:07.001Z,61.3
2017-08-01T06:39:17.369Z,61.6
2017-08-01T06:40:27.775Z,61.3
2017-08-01T06:41:37.817Z,62.08
2017-08-01T06:42:48.175Z,61.6
2017-08-01T06:43:58.522Z,61.69
2017-08-01T06:45:08.553Z,61.69
2017-08-01T06:46:18.954Z,61.4
2017-08-01T06:47:29.318Z,61.43
2017-08-01T06:48:39.679Z,61.43
2017-08-01T06:49:49.727Z,61.82
2017-08-01T06:51:00.091Z,61.55
2017-08-01T06:52:10.501Z,61.85
2017-08-01T06:53:20.546Z,61.36
2017-08-01T06:54:30.269Z,61.46
2017-08-01T06:55:40.634Z,61.07
2017-08-01T06:56:50.993Z,61.46
2017-08-01T06:58:01.502Z,61.36
2017-08-01T06:59:11.551Z,61.26
2017-08-01T07:00:21.924Z,61.88
2017-08-01T07:01:32.283Z,61.46
2017-08-01T07:02:42.661Z,61.65
2017-08-01T07:03:53.076Z,62.05
2017-08-01T07:05:03.429Z,62.15
2017-08-01T07:06:13.801Z,61.95
2017-08-01T07:07:23.835Z,61.95
2017-08-01T07:08:34.184Z,61.65
2017-08-01T07:09:44.305Z,62.15
2017-08-01T07:10:54.658Z,62.15
2017-08-01T07:12:04.711Z,62.05
2017-08-01T07:13:15.080Z,62.08
2017-08-01T07:14:24.809Z,62.18
2017-08-01T07:15:34.913Z,62.18
2017-08-01T07:16:45.268Z,62.08
2017-08-01T07:17:55.633Z,62.08
2017-08-01T07:19:05.999Z,61.88
2017-08-01T07:20:16.058Z,61.68
2017-08-01T07:21:26.477Z,61.88
2017-08-01T07:22:36.554Z,61.58
2017-08-01T07:23:46.610Z,62.21
2017-08-01T07:24:56.977Z,61.68
2017-08-01T07:26:07.012Z,62.01
2017-08-01T07:27:17.435Z,61.91
2017-08-01T07:28:27.794Z,62.01
2017-08-01T07:29:38.135Z,61.91
2017-08-01T07:30:48.203Z,61.61
2017-08-01T07:31:58.235Z,61.42
2017-08-01T07:33:08.631Z,61.42
2017-08-01T07:34:19.009Z,61.81
2017-08-01T07:35:29.359Z,62.3
2017-08-01T07:36:39.757Z,62.01
2017-08-01T07:37:50.120Z,61.42
2017-08-01T07:39:00.080Z,61.32
2017-08-01T07:40:10.482Z,61.45
2017-08-01T07:41:20.873Z,61.25
2017-08-01T07:42:31.260Z,61.35
2017-08-01T07:43:41.676Z,61.05
2017-08-01T07:44:51.823Z,61.94
2017-08-01T07:46:01.941Z,62.04
2017-08-01T07:47:12.324Z,61.25
2017-08-01T07:48:22.477Z,62.14
2017-08-01T07:49:32.934Z,62.34
2017-08-01T07:50:43.369Z,61.74
2017-08-01T07:51:53.802Z,61.18
2017-08-01T07:53:04.169Z,62.27
2017-08-01T07:54:14.216Z,61.58
2017-08-01T07:55:24.359Z,62.07
2017-08-01T07:56:34.800Z,61.8
2017-08-01T07:57:44.877Z,61.71
2017-08-01T07:58:55.240Z,61.68
2017-08-01T08:00:05.622Z,61.71
2017-08-01T08:01:15.995Z,61.61
2017-08-01T08:02:26.429Z,61.71
2017-08-01T08:03:36.489Z,61.41
2017-08-01T08:04:46.566Z,61.71
2017-08-01T08:05:56.955Z,61.71
2017-08-01T08:07:07.346Z,61.71
2017-08-01T08:08:17.788Z,61.41
2017-08-01T08:09:28.291Z,61.41
2017-08-01T08:10:38.682Z,61.74
2017-08-01T08:11:48.822Z,61.64
2017-08-01T08:12:59.176Z,61.54
2017-08-01T08:14:09.349Z,61.64
2017-08-01T08:15:19.810Z,61.64
2017-08-01T08:16:29.895Z,61.74
2017-08-01T08:17:40.323Z,61.74
2017-08-01T08:18:50.391Z,61.64
2017-08-01T08:20:00.819Z,61.93
2017-08-01T08:21:10.970Z,61.83
2017-08-01T08:22:21.015Z,61.54
2017-08-01T08:23:31.410Z,61.74
2017-08-01T08:24:41.809Z,61.74
2017-08-01T08:25:52.242Z,61.77
2017-08-01T08:27:02.685Z,61.57
2017-08-01T08:28:13.066Z,61.47
2017-08-01T08:29:23.435Z,61.67
2017-08-01T08:30:33.815Z,61.37
2017-08-01T08:31:44.260Z,61.77
2017-08-01T08:32:54.757Z,61.6
2017-08-01T08:34:05.156Z,61.67
2017-08-01T08:35:15.199Z,61.99
2017-08-01T08:36:24.942Z,61.8
2017-08-01T08:37:35.392Z,61.8
2017-08-01T08:38:45.781Z,61.6
2017-08-01T08:39:56.233Z,61.6
2017-08-01T08:41:05.742Z,61.69
2017-08-01T08:42:16.107Z,62.02
2017-08-01T08:43:26.505Z,61.72
2017-08-01T08:44:36.546Z,61.72
2017-08-01T08:45:46.915Z,61.72
2017-08-01T08:46:57.333Z,61.82
2017-08-01T08:48:07.381Z,61.82
2017-08-01T08:49:17.851Z,62.12
2017-08-01T08:50:28.227Z,62.02
2017-08-01T08:51:38.705Z,62.05
2017-08-01T08:52:49.085Z,61.82
2017-08-01T08:53:59.504Z,61.82
2017-08-01T08:55:09.565Z,62.15
2017-08-01T08:56:19.612Z,62.05
2017-08-01T08:57:30.068Z,62.05
2017-08-01T08:58:40.414Z,61.96
2017-08-01T08:59:50.493Z,61.85
2017-08-01T09:01:00.907Z,61.66
2017-08-01T09:02:11.280Z,61.85
2017-08-01T09:03:21.688Z,61.66
2017-08-01T09:04:31.784Z,61.76
2017-08-01T09:05:42.181Z,61.76
2017-08-01T09:06:52.663Z,61.76
2017-08-01T09:08:03.036Z,62.05
2017-08-01T09:09:13.481Z,61.76
2017-08-01T09:10:23.529Z,61.76
2017-08-01T09:11:33.880Z,61.46
2017-08-01T09:12:44.238Z,61.07
2017-08-01T09:13:54.606Z,61.16
2017-08-01T09:15:04.985Z,62.05
2017-08-01T09:16:15.072Z,61.98
2017-08-01T09:17:25.129Z,61.88
2017-08-01T09:18:35.475Z,62.18
2017-08-01T09:19:45.528Z,61.96
2017-08-01T09:20:55.904Z,62.15
2017-08-01T09:22:06.272Z,62.15
2017-08-01T09:23:16.634Z,61.76
2017-08-01T09:24:27.119Z,61.56
2017-08-01T09:25:37.541Z,62.08
2017-08-01T09:26:47.672Z,61.85
2017-08-01T09:27:58.106Z,61.59
2017-08-01T09:29:08.156Z,61.59
2017-08-01T09:30:18.598Z,61.49
2017-08-01T09:31:28.653Z,61.59
2017-08-01T09:32:38.729Z,61.59
2017-08-01T09:33:48.832Z,61.49
2017-08-01T09:34:59.220Z,61.59
2017-08-01T09:36:09.350Z,61.49
2017-08-01T09:37:19.742Z,61.49
2017-08-01T09:38:30.109Z,61.69
2017-08-01T09:39:40.484Z,61
2017-08-01T09:40:50.554Z,61.69
2017-08-01T09:42:00.670Z,61.59
2017-08-01T09:43:11.091Z,61.52
2017-08-01T09:44:21.498Z,61.42
2017-08-01T09:45:31.887Z,61.52
2017-08-01T09:46:42.251Z,61.62
2017-08-01T09:47:52.676Z,61.42
2017-08-01T09:49:03.063Z,60.93
2017-08-01T09:50:13.494Z,61.16
2017-08-01T09:51:23.569Z,60.96
2017-08-01T09:52:33.941Z,61.16
2017-08-01T09:53:44.329Z,61.05
2017-08-01T09:54:54.396Z,61.16
2017-08-01T09:56:04.506Z,60.96
2017-08-01T09:57:14.875Z,61.08
2017-08-01T09:58:25.255Z,61.18
2017-08-01T09:59:35.373Z,61.18
2017-08-01T10:00:46.000Z,61.18
2017-08-01T10:01:56.459Z,61.08
2017-08-01T10:03:06.927Z,60.99
2017-08-01T10:04:17.293Z,61.29
2017-08-01T10:05:27.707Z,60.79
2017-08-01T10:06:37.762Z,60.72
2017-08-01T10:07:47.846Z,60.62
2017-08-01T10:08:57.886Z,60.92
2017-08-01T10:10:08.280Z,61.02
2017-08-01T10:11:18.403Z,60.92
2017-08-01T10:12:28.790Z,60.94
2017-08-01T10:13:38.573Z,61.05
2017-08-01T10:14:48.648Z,61.05
2017-08-01T10:15:59.019Z,61.05
2017-08-01T10:17:09.135Z,60.78
2017-08-01T10:18:19.197Z,60.97
2017-08-01T10:19:29.625Z,60.97
2017-08-01T10:20:40.001Z,60.78
2017-08-01T10:21:50.117Z,60.97
2017-08-01T10:23:00.592Z,60.97
2017-08-01T10:24:11.025Z,60.78
2017-08-01T10:25:21.420Z,60.91
2017-08-01T10:26:31.480Z,61.21
2017-08-01T10:27:41.868Z,60.81
2017-08-01T10:28:52.333Z,60.91
2017-08-01T10:30:02.718Z,61
2017-08-01T10:31:13.112Z,60.88
2017-08-01T10:32:23.502Z,60.81
2017-08-01T10:33:33.562Z,60.81
2017-08-01T10:34:43.982Z,60.91
2017-08-01T10:35:54.348Z,60.91
2017-08-01T10:37:04.428Z,60.91
2017-08-01T10:38:14.882Z,60.81
2017-08-01T10:39:25.251Z,60.81
2017-08-01T10:40:35.639Z,60.81
2017-08-01T10:41:46.034Z,60.61
2017-08-01T10:42:56.430Z,60.91
2017-08-01T10:44:06.831Z,61
2017-08-01T10:45:16.886Z,61.21
2017-08-01T10:46:27.006Z,60.91
2017-08-01T10:47:37.381Z,60.81
2017-08-01T10:48:47.786Z,61.13
2017-08-01T10:49:57.837Z,60.74
2017-08-01T10:51:08.202Z,60.14
2017-08-01T10:52:18.601Z,60.64
2017-08-01T10:53:28.998Z,60.64
2017-08-01T10:54:39.358Z,60.83
2017-08-01T10:55:49.446Z,60.74
2017-08-01T10:56:59.826Z,60.94
2017-08-01T10:58:10.283Z,60.64
2017-08-01T10:59:20.666Z,60.54
2017-08-01T11:00:31.081Z,60.83
2017-08-01T11:01:41.469Z,60.34
2017-08-01T11:02:51.227Z,60.44
2017-08-01T11:04:01.658Z,60.47
2017-08-01T11:05:12.054Z,60.57
2017-08-01T11:06:22.427Z,60.27
2017-08-01T11:07:32.794Z,60.54
2017-08-01T11:08:43.152Z,60.57
2017-08-01T11:09:53.586Z,60.27
2017-08-01T11:11:03.960Z,60.37
2017-08-01T11:12:14.012Z,60.47
2017-08-01T11:13:24.078Z,60.47
2017-08-01T11:14:34.449Z,60.27
2017-08-01T11:15:44.561Z,60.4
2017-08-01T11:16:54.615Z,60.4
2017-08-01T11:18:04.984Z,60.4
2017-08-01T11:19:15.108Z,60.6
2017-08-01T11:20:25.472Z,60.7
2017-08-01T11:21:35.912Z,60.6
2017-08-01T11:22:46.274Z,60.7
2017-08-01T11:23:56.655Z,60.6
2017-08-01T11:25:07.030Z,60.4
2017-08-01T11:26:17.410Z,60.72
2017-08-01T11:27:27.902Z,60.72
2017-08-01T11:28:38.289Z,59.93
2017-08-01T11:29:48.354Z,60.13
2017-08-01T11:30:58.744Z,60.83
2017-08-01T11:32:09.170Z,60.72
2017-08-01T11:33:19.635Z,60.72
2017-08-01T11:34:30.044Z,60.53
2017-08-01T11:35:40.421Z,60.53
2017-08-01T11:36:50.308Z,60.43
2017-08-01T11:38:00.713Z,60.53
2017-08-01T11:39:10.850Z,60.72
2017-08-01T11:40:21.223Z,60.33
2017-08-01T11:41:31.315Z,60.33
2017-08-01T11:42:41.409Z,60.63
2017-08-01T11:43:51.823Z,60.63
2017-08-01T11:45:02.208Z,60.72
2017-08-01T11:46:12.306Z,60.7
2017-08-01T11:47:22.702Z,60.5
2017-08-01T11:48:33.095Z,60.5
2017-08-01T11:49:43.509Z,60.6
2017-08-01T11:50:53.622Z,60.5
2017-08-01T11:52:04.093Z,60.4
2017-08-01T11:53:13.988Z,60.4
2017-08-01T11:54:24.378Z,60.6
2017-08-01T11:55:34.769Z,60.2
2017-08-01T11:56:45.193Z,59.91
2017-08-01T11:57:55.577Z,60
2017-08-01T11:59:05.991Z,60.1
2017-08-01T12:00:16.053Z,60
2017-08-01T12:01:26.116Z,60.23
2017-08-01T12:02:36.264Z,60.13
2017-08-01T12:03:46.656Z,59.93
2017-08-01T12:04:57.027Z,59.93
2017-08-01T12:06:07.402Z,60.13
2017-08-01T12:07:17.485Z,60.33
2017-08-01T12:08:27.900Z,59.93
2017-08-01T12:09:38.280Z,59.83
2017-08-01T12:10:48.657Z,60.03
2017-08-01T12:11:59.037Z,59.93
2017-08-01T12:13:08.806Z,59.93
2017-08-01T12:14:19.214Z,60.03
2017-08-01T12:15:29.336Z,59.74
2017-08-01T12:16:39.427Z,59.83
2017-08-01T12:17:49.863Z,59.93
2017-08-01T12:19:00.306Z,59.76
2017-08-01T12:20:10.689Z,59.56
2017-08-01T12:21:21.067Z,59.76
2017-08-01T12:22:31.473Z,59.47
2017-08-01T12:23:41.892Z,59.79
2017-08-01T12:24:52.344Z,59.39
2017-08-01T12:26:02.402Z,59.62
2017-08-01T12:27:12.773Z,59.42
2017-08-01T12:28:23.203Z,59.62
2017-08-01T12:29:33.588Z,59.72
2017-08-01T12:30:44.026Z,59.42
2017-08-01T12:31:54.489Z,59.92
2017-08-01T12:33:04.878Z,59.72
2017-08-01T12:34:14.623Z,60.31
2017-08-01T12:35:25.081Z,59.92
2017-08-01T12:36:35.176Z,59.99
2017-08-01T12:37:45.545Z,60.28
2017-08-01T12:38:55.592Z,60.09
2017-08-01T12:40:06.061Z,59.82
2017-08-01T12:41:16.507Z,59.89
2017-08-01T12:42:26.895Z,59.62
2017-08-01T12:43:37.478Z,60.22
2017-08-01T12:44:47.673Z,59.92
2017-08-01T12:45:58.085Z,59.92
2017-08-01T12:47:08.162Z,60.49
2017-08-01T12:48:18.307Z,59.89
2017-08-01T12:49:28.669Z,59.99
2017-08-01T12:50:39.178Z,60.19
2017-08-01T12:51:49.579Z,60.09
2017-08-01T12:52:59.996Z,59.89
2017-08-01T12:54:10.377Z,59.79
2017-08-01T12:55:20.790Z,59.99
2017-08-01T12:56:31.187Z,59.99
2017-08-01T12:57:41.276Z,59.89
2017-08-01T12:58:51.560Z,59.92
2017-08-01T13:00:01.929Z,60.02
2017-08-01T13:01:12.335Z,59.82
2017-08-01T13:02:22.757Z,60.31
2017-08-01T13:03:32.896Z,59.92
2017-08-01T13:04:43.323Z,60.22
2017-08-01T13:05:53.075Z,60.31
2017-08-01T13:07:03.509Z,60.22
2017-08-01T13:08:13.979Z,60.02
2017-08-01T13:09:24.044Z,59.99
2017-08-01T13:10:34.167Z,60.12
2017-08-01T13:11:44.550Z,60.12
2017-08-01T13:12:54.614Z,59.92
2017-08-01T13:14:04.987Z,60.02
2017-08-01T13:15:15.379Z,60.22
2017-08-01T13:16:25.521Z,60.02
2017-08-01T13:17:35.977Z,59.92
2017-08-01T13:18:46.387Z,60.12
2017-08-01T13:19:56.777Z,60.02
2017-08-01T13:21:07.198Z,60.12
2017-08-01T13:22:17.646Z,60.22
2017-08-01T13:23:28.023Z,59.99
2017-08-01T13:24:38.084Z,60.42
2017-08-01T13:25:48.473Z,60.19
2017-08-01T13:26:58.862Z,60.82
2017-08-01T13:28:09.357Z,60.09
2017-08-01T13:29:19.742Z,60.02
2017-08-01T13:30:30.116Z,59.99
2017-08-01T13:31:40.514Z,60.78
2017-08-01T13:32:50.919Z,60.88
2017-08-01T13:34:00.750Z,60.88
2017-08-01T13:35:11.131Z,60.28
2017-08-01T13:36:21.511Z,60.78
2017-08-01T13:37:31.884Z,60.28
2017-08-01T13:38:42.263Z,59.99
2017-08-01T13:39:52.701Z,59.99
2017-08-01T13:41:03.074Z,60.78
2017-08-01T13:42:13.444Z,60.78
2017-08-01T13:43:23.817Z,60.28
2017-08-01T13:44:33.879Z,59.99
2017-08-01T13:45:44.298Z,60.78
2017-08-01T13:46:54.661Z,60.78
2017-08-01T13:48:05.087Z,60.58
2017-08-01T13:49:15.447Z,60.39
2017-08-01T13:50:25.908Z,60.36
2017-08-01T13:51:36.006Z,60.78
2017-08-01T13:52:46.446Z,60.09
2017-08-01T13:53:56.808Z,60.88
2017-08-01T13:55:07.195Z,60.58
2017-08-01T13:56:17.611Z,60.78
2017-08-01T13:57:27.470Z,60.88
2017-08-01T13:58:37.899Z,60.09
2017-08-01T13:59:47.959Z,60.78
2017-08-01T14:00:58.010Z,60.69
2017-08-01T14:02:08.454Z,60.58
2017-08-01T14:03:18.250Z,60.75
2017-08-01T14:04:28.384Z,60.56
2017-08-01T14:05:38.788Z,60.69
2017-08-01T14:06:48.932Z,60.75
2017-08-01T14:07:59.315Z,60.66
2017-08-01T14:09:09.401Z,60.58
2017-08-01T14:10:19.446Z,60.49
2017-08-01T14:11:29.863Z,60.69
2017-08-01T14:12:40.244Z,60.78
2017-08-01T14:13:50.620Z,60.66
2017-08-01T14:15:01.036Z,60.66
2017-08-01T14:16:11.428Z,60.46
2017-08-01T14:17:21.844Z,60.66
2017-08-01T14:18:32.273Z,60.56
2017-08-01T14:19:42.655Z,60.66
2017-08-01T14:20:53.014Z,60.56
2017-08-01T14:22:02.788Z,60.75
2017-08-01T14:23:12.916Z,60.36
2017-08-01T14:24:23.013Z,60.36
2017-08-01T14:25:33.410Z,60.56
2017-08-01T14:26:43.875Z,60.66
2017-08-01T14:27:54.294Z,60.66
2017-08-01T14:29:04.656Z,60.66
2017-08-01T14:30:14.721Z,60.85
2017-08-01T14:31:25.140Z,60.56
2017-08-01T14:32:35.577Z,60.56
2017-08-01T14:33:45.632Z,60.46
2017-08-01T14:34:56.012Z,60.75
2017-08-01T14:36:05.793Z,60.56
2017-08-01T14:37:16.196Z,60.56
2017-08-01T14:38:26.623Z,60.56
2017-08-01T14:39:37.001Z,60.56
2017-08-01T14:40:47.079Z,60.66
2017-08-01T14:41:57.140Z,60.56
2017-08-01T14:43:07.514Z,60.66
2017-08-01T14:44:17.899Z,60.56
2017-08-01T14:45:27.964Z,60.56
2017-08-01T14:46:38.352Z,60.56
2017-08-01T14:47:48.785Z,60.56
2017-08-01T14:48:59.183Z,60.85
2017-08-01T14:50:09.626Z,60.36
2017-08-01T14:51:20.014Z,60.93
2017-08-01T14:52:30.412Z,60.93
2017-08-01T14:53:40.489Z,60.33
2017-08-01T14:54:50.895Z,60.93
2017-08-01T14:56:01.318Z,60.13
2017-08-01T14:57:11.683Z,61.22
2017-08-01T14:58:22.053Z,61.22
2017-08-01T14:59:32.120Z,61.22
2017-08-01T15:00:42.491Z,61.32
2017-08-01T15:01:52.931Z,61.22
2017-08-01T15:03:03.329Z,61.12
2017-08-01T15:04:13.062Z,61.1
2017-08-01T15:05:23.156Z,61.39
2017-08-01T15:06:33.541Z,60.99
2017-08-01T15:07:43.968Z,60.89
2017-08-01T15:08:54.023Z,61.39
2017-08-01T15:10:04.468Z,61.19
2017-08-01T15:11:14.532Z,61.1
2017-08-01T15:12:24.602Z,61.29
2017-08-01T15:13:35.047Z,60.89
2017-08-01T15:14:45.440Z,60.89
2017-08-01T15:15:55.811Z,61.19
2017-08-01T15:17:06.188Z,61.19
2017-08-01T15:18:16.616Z,61.1
2017-08-01T15:19:26.745Z,61.1
2017-08-01T15:20:36.847Z,61.39
2017-08-01T15:21:47.217Z,61.49
2017-08-01T15:22:57.271Z,61.29
2017-08-01T15:24:07.644Z,61.19
2017-08-01T15:25:18.061Z,61.29
2017-08-01T15:26:27.821Z,60.99
2017-08-01T15:27:38.205Z,60.8
2017-08-01T15:28:48.594Z,60.89
2017-08-01T15:29:58.968Z,60.99
2017-08-01T15:31:09.400Z,60.77
2017-08-01T15:32:19.815Z,60.96
2017-08-01T15:33:30.179Z,61.07
2017-08-01T15:34:40.556Z,61.16
2017-08-01T15:35:50.927Z,61.07
2017-08-01T15:37:01.388Z,61.04
2017-08-01T15:38:11.757Z,61.16